createdAt,value
2023-02-04T00:00:56.792Z,99793.78
2023-02-04T00:03:23.296Z,99794.16
2023-02-04T00:05:50.467Z,99795.75
2023-02-04T00:08:17.043Z,99793.50
2023-02-04T00:10:43.516Z,99790.47
2023-02-04T00:13:10.072Z,99792.25
2023-02-04T00:15:36.754Z,99786.66
2023-02-04T00:18:03.956Z,99779.78
2023-02-04T00:20:30.718Z,99786.16
2023-02-04T00:22:57.620Z,99771.81
2023-02-04T00:25:24.235Z,99783.03
2023-02-04T00:27:54.022Z,99796.66
2023-02-04T00:30:23.603Z,99796.47
2023-02-04T00:32:54.870Z,99793.06
2023-02-04T00:35:22.388Z,99775.66
2023-02-04T00:37:51.580Z,99778.75
2023-02-04T00:40:18.189Z,99746.22
2023-02-04T00:42:44.763Z,99786.44
2023-02-04T00:45:12.500Z,99776.22
2023-02-04T00:47:39.070Z,99783.81
2023-02-04T00:50:06.151Z,99778.00
2023-02-04T00:52:33.077Z,99777.06
2023-02-04T00:54:59.519Z,99778.09
2023-02-04T00:57:25.951Z,99776.75
2023-02-04T00:59:55.915Z,99772.44
2023-02-04T01:02:26.005Z,99768.84
2023-02-04T01:04:53.019Z,99759.16
2023-02-04T01:07:19.576Z,99764.94
2023-02-04T01:09:46.087Z,99770.94
2023-02-04T01:12:12.503Z,99762.13
2023-02-04T01:14:38.986Z,99759.09
2023-02-04T01:17:05.716Z,99758.44
2023-02-04T01:19:32.324Z,99763.63
2023-02-04T01:21:58.817Z,99757.22
2023-02-04T01:24:25.249Z,99750.91
2023-02-04T01:26:54.096Z,99762.09
2023-02-04T01:29:20.572Z,99747.06
2023-02-04T01:31:47.095Z,99748.69
2023-02-04T01:34:13.552Z,99736.34
2023-02-04T01:36:40.026Z,99747.91
2023-02-04T01:39:06.490Z,99759.03
2023-02-04T01:41:33.870Z,99737.44
2023-02-04T01:44:00.486Z,99754.06
2023-02-04T01:46:27.054Z,99759.78
2023-02-04T01:48:57.986Z,99751.63
2023-02-04T01:51:30.370Z,99753.97
2023-02-04T01:53:56.928Z,99735.19
2023-02-04T01:56:26.779Z,99748.81
2023-02-04T01:58:56.200Z,99739.69
2023-02-04T02:01:38.413Z,99756.09
2023-02-04T02:04:05.880Z,99756.59
2023-02-04T02:06:32.414Z,99753.41
2023-02-04T02:08:58.986Z,99740.25
2023-02-04T02:11:28.958Z,99738.56
2023-02-04T02:13:58.507Z,99749.38
2023-02-04T02:16:29.830Z,99746.75
2023-02-04T02:19:00.045Z,99750.03
2023-02-04T02:21:42.465Z,99745.72
2023-02-04T02:24:30.980Z,99741.66
2023-02-04T02:27:00.224Z,99727.97
2023-02-04T02:29:29.697Z,99721.28
2023-02-04T02:32:00.211Z,99730.94
2023-02-04T02:34:31.103Z,99729.66
2023-02-04T02:37:02.212Z,99723.56
2023-02-04T02:39:29.188Z,99720.34
2023-02-04T02:41:59.781Z,99724.69
2023-02-04T02:44:30.819Z,99720.63
2023-02-04T02:47:01.410Z,99710.03
2023-02-04T02:49:32.813Z,99705.81
2023-02-04T02:51:59.412Z,99704.78
2023-02-04T02:54:31.155Z,99717.53
2023-02-04T02:57:00.798Z,99709.66
2023-02-04T02:59:29.184Z,99707.94
2023-02-04T03:02:01.353Z,99715.56
2023-02-04T03:04:35.737Z,99705.31
2023-02-04T03:07:02.335Z,99707.13
2023-02-04T03:09:29.995Z,99696.63
2023-02-04T03:11:56.643Z,99709.56
2023-02-04T03:14:25.253Z,99703.84
2023-02-04T03:16:54.508Z,99701.50
2023-02-04T03:19:21.103Z,99709.84
2023-02-04T03:21:47.678Z,99717.34
2023-02-04T03:24:14.389Z,99701.56
2023-02-04T03:26:40.892Z,99705.31
2023-02-04T03:29:09.889Z,99707.94
2023-02-04T03:31:37.964Z,99704.56
2023-02-04T03:34:04.727Z,99711.72
2023-02-04T03:36:31.160Z,99718.09
2023-02-04T03:38:57.679Z,99702.78
2023-02-04T03:41:24.274Z,99711.59
2023-02-04T03:43:50.748Z,99700.38
2023-02-04T03:46:17.251Z,99710.31
2023-02-04T03:48:43.716Z,99698.00
2023-02-04T03:51:10.132Z,99687.41
2023-02-04T03:53:36.670Z,99710.59
2023-02-04T03:56:03.308Z,99702.06
2023-02-04T03:58:31.810Z,99705.34
2023-02-04T04:00:58.501Z,99706.81
2023-02-04T04:03:25.050Z,99694.00
2023-02-04T04:05:51.533Z,99700.25
2023-02-04T04:08:18.025Z,99704.38
2023-02-04T04:10:44.610Z,99710.41
2023-02-04T04:13:11.089Z,99706.34
2023-02-04T04:15:37.578Z,99712.00
2023-02-04T04:18:04.699Z,99717.44
2023-02-04T04:20:33.881Z,99716.22
2023-02-04T04:23:00.603Z,99720.28
2023-02-04T04:25:27.043Z,99714.25
2023-02-04T04:27:53.602Z,99720.63
2023-02-04T04:30:20.166Z,99720.47
2023-02-04T04:32:46.664Z,99722.13
2023-02-04T04:35:13.139Z,99715.28
2023-02-04T04:37:39.603Z,99735.56
2023-02-04T04:40:06.516Z,99721.38
2023-02-04T04:42:36.777Z,99729.34
2023-02-04T04:45:09.225Z,99739.66
2023-02-04T04:47:35.724Z,99733.25
2023-02-04T04:50:04.730Z,99734.56
2023-02-04T04:52:31.248Z,99741.88
2023-02-04T04:54:57.735Z,99746.38
2023-02-04T04:57:24.196Z,99735.53
2023-02-04T04:59:50.759Z,99734.56
2023-02-04T05:02:17.264Z,99733.81
2023-02-04T05:04:43.812Z,99735.53
2023-02-04T05:07:10.285Z,99733.44
2023-02-04T05:09:36.795Z,99733.84
2023-02-04T05:12:03.350Z,99739.84
2023-02-04T05:14:30.504Z,99729.25
2023-02-04T05:16:56.977Z,99727.03
2023-02-04T05:19:23.485Z,99730.19
2023-02-04T05:21:49.938Z,99741.09
2023-02-04T05:24:16.447Z,99741.09
2023-02-04T05:26:43.006Z,99745.59
2023-02-04T05:29:10.791Z,99728.34
2023-02-04T05:31:37.470Z,99747.47
2023-02-04T05:34:04.373Z,99733.41
2023-02-04T05:36:31.616Z,99743.06
2023-02-04T05:38:58.087Z,99736.97
2023-02-04T05:41:24.529Z,99738.66
2023-02-04T05:43:50.968Z,99728.50
2023-02-04T05:46:17.481Z,99722.78
2023-02-04T05:48:43.992Z,99736.22
2023-02-04T05:51:10.748Z,99747.66
2023-02-04T05:53:38.438Z,99748.59
2023-02-04T05:56:05.234Z,99741.09
2023-02-04T05:58:33.659Z,99744.75
2023-02-04T06:01:04.499Z,99750.75
2023-02-04T06:03:35.867Z,99740.81
2023-02-04T06:06:03.462Z,99756.00
2023-02-04T06:08:29.940Z,99743.59
2023-02-04T06:10:56.477Z,99751.59
2023-02-04T06:13:23.101Z,99760.13
2023-02-04T06:15:49.579Z,99750.81
2023-02-04T06:18:16.025Z,99751.88
2023-02-04T06:20:42.554Z,99745.25
2023-02-04T06:23:09.067Z,99766.16
2023-02-04T06:25:36.651Z,99750.56
2023-02-04T06:28:03.246Z,99747.94
2023-02-04T06:30:29.921Z,99757.31
2023-02-04T06:32:56.535Z,99760.03
2023-02-04T06:35:23.010Z,99765.78
2023-02-04T06:37:49.521Z,99747.91
2023-02-04T06:40:16.108Z,99752.88
2023-02-04T06:42:42.608Z,99759.81
2023-02-04T06:45:09.296Z,99762.25
2023-02-04T06:47:37.863Z,99766.09
2023-02-04T06:50:04.464Z,99754.78
2023-02-04T06:52:31.178Z,99776.22
2023-02-04T06:54:58.129Z,99758.88
2023-02-04T06:57:25.078Z,99768.47
2023-02-04T06:59:51.813Z,99782.94
2023-02-04T07:02:18.818Z,99770.38
2023-02-04T07:04:47.692Z,99772.03
2023-02-04T07:07:14.435Z,99779.78
2023-02-04T07:09:40.948Z,99767.88
2023-02-04T07:12:08.887Z,99781.75
2023-02-04T07:14:42.480Z,99781.78
2023-02-04T07:17:08.999Z,99794.97
2023-02-04T07:19:40.222Z,99778.00
2023-02-04T07:22:10.213Z,99791.50
2023-02-04T07:24:38.189Z,99794.63
2023-02-04T07:27:04.777Z,99796.75
2023-02-04T07:29:31.248Z,99782.72
2023-02-04T07:31:57.820Z,99800.59
2023-02-04T07:34:24.405Z,99796.94
2023-02-04T07:36:51.016Z,99788.38
2023-02-04T07:39:17.902Z,99792.06
2023-02-04T07:41:44.738Z,99802.09
2023-02-04T07:44:11.666Z,99797.88
2023-02-04T07:46:40.778Z,99804.56
2023-02-04T07:49:10.468Z,99773.00
2023-02-04T07:51:39.749Z,99796.84
2023-02-04T07:54:08.651Z,99792.09
2023-02-04T07:56:35.219Z,99807.19
2023-02-04T07:59:01.745Z,99804.47
2023-02-04T08:01:28.232Z,99804.00
2023-02-04T08:03:54.761Z,99806.25
2023-02-04T08:06:21.285Z,99790.03
2023-02-04T08:08:47.816Z,99803.16
2023-02-04T08:11:14.234Z,99796.41
2023-02-04T08:13:40.709Z,99804.28
2023-02-04T08:16:11.924Z,99801.38
2023-02-04T08:18:41.342Z,99809.16
2023-02-04T08:21:10.525Z,99810.31
2023-02-04T08:23:41.734Z,99802.22
2023-02-04T08:26:12.585Z,99809.66
2023-02-04T08:28:39.203Z,99800.59
2023-02-04T08:31:11.904Z,99806.63
2023-02-04T08:33:39.802Z,99809.06
2023-02-04T08:36:08.547Z,99805.59
2023-02-04T08:38:35.528Z,99790.00
2023-02-04T08:41:02.841Z,99800.78
2023-02-04T08:43:29.321Z,99793.66
2023-02-04T08:45:55.855Z,99800.78
2023-02-04T08:48:22.381Z,99820.78
2023-02-04T08:50:48.876Z,99810.78
2023-02-04T08:53:15.461Z,99777.75
2023-02-04T08:55:44.813Z,99777.00
2023-02-04T08:58:12.496Z,99818.97
2023-02-04T09:00:39.113Z,99816.88
2023-02-04T09:03:08.508Z,99817.78
2023-02-04T09:05:34.965Z,99823.44
2023-02-04T09:08:01.588Z,99813.66
2023-02-04T09:10:28.046Z,99786.72
2023-02-04T09:12:56.114Z,99824.13
2023-02-04T09:15:25.814Z,99815.53
2023-02-04T09:18:04.415Z,99825.75
2023-02-04T09:20:31.149Z,99818.19
2023-02-04T09:22:57.815Z,99810.75
2023-02-04T09:25:24.321Z,99806.63
2023-02-04T09:27:50.841Z,99806.16
2023-02-04T09:30:18.949Z,99824.00
2023-02-04T09:32:45.413Z,99820.97
2023-02-04T09:35:11.865Z,99813.63
2023-02-04T09:37:41.293Z,99823.41
2023-02-04T09:40:17.040Z,99803.84
2023-02-04T09:42:46.968Z,99811.19
2023-02-04T09:45:35.257Z,99821.56
2023-02-04T09:48:04.345Z,99822.63
2023-02-04T09:50:32.785Z,99810.50
2023-02-04T09:53:04.129Z,99803.75
2023-02-04T09:55:33.901Z,99815.13
2023-02-04T09:58:00.728Z,99814.06
2023-02-04T10:00:30.592Z,99777.78
2023-02-04T10:03:00.129Z,99805.69
2023-02-04T10:05:33.401Z,99820.34
2023-02-04T10:08:00.499Z,99799.88
2023-02-04T10:10:27.803Z,99814.94
2023-02-04T10:12:58.864Z,99816.41
2023-02-04T10:15:26.037Z,99818.66
2023-02-04T10:17:57.753Z,99827.03
2023-02-04T10:20:25.602Z,99821.31
2023-02-04T10:22:54.616Z,99815.28
2023-02-04T10:25:24.078Z,99824.38
2023-02-04T10:27:50.860Z,99825.66
2023-02-04T10:30:24.030Z,99825.38
2023-02-04T10:32:51.711Z,99835.22
2023-02-04T10:35:20.619Z,99819.03
2023-02-04T10:37:51.114Z,99826.25
2023-02-04T10:40:32.897Z,99831.47
2023-02-04T10:43:00.199Z,99823.75
2023-02-04T10:45:30.329Z,99828.94
2023-02-04T10:47:59.280Z,99828.13
2023-02-04T10:50:27.496Z,99836.25
2023-02-04T10:53:16.460Z,99831.59
2023-02-04T10:55:47.785Z,99830.34
2023-02-04T10:58:20.634Z,99824.84
2023-02-04T11:00:48.140Z,99795.63
2023-02-04T11:03:28.763Z,99779.47
2023-02-04T11:06:00.947Z,99805.28
2023-02-04T11:08:39.098Z,99797.50
2023-02-04T11:11:17.678Z,99810.50
2023-02-04T11:13:50.548Z,99807.94
2023-02-04T11:16:23.501Z,99803.84
2023-02-04T11:18:58.541Z,99789.97
2023-02-04T11:21:33.942Z,99780.06
2023-02-04T11:24:12.509Z,99798.94
2023-02-04T11:26:41.626Z,99799.34
2023-02-04T11:29:26.862Z,99797.59
2023-02-04T11:32:00.284Z,99795.06
2023-02-04T11:34:29.742Z,99800.81
2023-02-04T11:36:59.413Z,99799.66
2023-02-04T11:39:32.108Z,99798.59
2023-02-04T11:42:00.244Z,99796.84
2023-02-04T11:44:27.204Z,99802.31
2023-02-04T11:46:58.563Z,99801.00
2023-02-04T11:49:27.086Z,99792.66
2023-02-04T11:52:08.925Z,99797.56
2023-02-04T11:54:39.041Z,99796.69
2023-02-04T11:57:07.949Z,99771.94
2023-02-04T11:59:34.443Z,99791.34
2023-02-04T12:02:25.932Z,99793.34
2023-02-04T12:04:57.411Z,99790.50
2023-02-04T12:07:29.041Z,99786.25
2023-02-04T12:09:58.568Z,99788.66
2023-02-04T12:12:27.827Z,99774.13
2023-02-04T12:15:13.574Z,99781.81
2023-02-04T12:17:40.103Z,99776.19
2023-02-04T12:20:08.291Z,99770.16
2023-02-04T12:22:34.729Z,99745.63
2023-02-04T12:25:01.211Z,99762.22
2023-02-04T12:27:27.660Z,99740.00
2023-02-04T12:29:54.122Z,99722.28
2023-02-04T12:32:20.545Z,99761.13
2023-02-04T12:34:46.969Z,99741.31
2023-02-04T12:37:13.454Z,99746.22
2023-02-04T12:39:39.987Z,99747.56
2023-02-04T12:42:09.646Z,99740.19
2023-02-04T12:44:37.845Z,99755.94
2023-02-04T12:47:04.466Z,99748.19
2023-02-04T12:49:30.940Z,99729.84
2023-02-04T12:51:59.229Z,99761.78
2023-02-04T12:54:25.805Z,99749.28
2023-02-04T12:56:53.515Z,99755.31
2023-02-04T12:59:20.003Z,99726.78
2023-02-04T13:01:46.558Z,99727.91
2023-02-04T13:04:13.087Z,99746.53
2023-02-04T13:06:39.538Z,99741.53
2023-02-04T13:09:09.370Z,99725.31
2023-02-04T13:11:38.211Z,99742.72
2023-02-04T13:14:04.710Z,99742.53
2023-02-04T13:16:31.548Z,99744.75
2023-02-04T13:18:58.043Z,99733.88
2023-02-04T13:21:24.477Z,99738.41
2023-02-04T13:23:51.027Z,99744.75
2023-02-04T13:26:17.477Z,99745.66
2023-02-04T13:28:43.946Z,99745.25
2023-02-04T13:31:10.577Z,99723.28
2023-02-04T13:33:39.130Z,99734.25
2023-02-04T13:36:06.078Z,99727.47
2023-02-04T13:38:32.649Z,99720.75
2023-02-04T13:40:59.180Z,99700.50
2023-02-04T13:43:25.895Z,99702.72
2023-02-04T13:45:52.443Z,99725.88
2023-02-04T13:48:18.942Z,99720.91
2023-02-04T13:50:45.632Z,99716.44
2023-02-04T13:53:12.096Z,99719.75
2023-02-04T13:55:38.579Z,99735.84
2023-02-04T13:58:05.273Z,99719.22
2023-02-04T14:00:32.218Z,99724.34
2023-02-04T14:02:58.956Z,99736.84
2023-02-04T14:05:25.538Z,99710.41
2023-02-04T14:07:52.132Z,99705.28
2023-02-04T14:10:19.098Z,99739.09
2023-02-04T14:12:45.836Z,99733.78
2023-02-04T14:15:12.298Z,99728.59
2023-02-04T14:17:41.587Z,99713.50
2023-02-04T14:20:16.131Z,99726.59
2023-02-04T14:22:42.950Z,99721.06
2023-02-04T14:25:12.459Z,99715.91
2023-02-04T14:27:42.340Z,99738.19
2023-02-04T14:30:21.967Z,99708.56
2023-02-04T14:32:48.885Z,99708.09
2023-02-04T14:35:16.520Z,99724.25
2023-02-04T14:37:46.941Z,99739.47
2023-02-04T14:40:14.995Z,99741.06
2023-02-04T14:42:44.713Z,99739.63
2023-02-04T14:45:15.231Z,99739.38
2023-02-04T14:47:49.232Z,99731.44
2023-02-04T14:50:16.773Z,99730.47
2023-02-04T14:52:43.276Z,99714.84
2023-02-04T14:55:14.396Z,99725.44
2023-02-04T14:57:45.070Z,99707.25
2023-02-04T15:00:14.839Z,99734.81
2023-02-04T15:02:42.567Z,99715.09
2023-02-04T15:05:12.332Z,99673.09
2023-02-04T15:07:41.331Z,99739.28
2023-02-04T15:10:10.289Z,99708.94
2023-02-04T15:12:36.930Z,99702.34
2023-02-04T15:15:04.062Z,99718.94
2023-02-04T15:17:30.526Z,99702.47
2023-02-04T15:19:56.971Z,99710.63
2023-02-04T15:22:23.420Z,99696.44
2023-02-04T15:24:50.014Z,99733.50
2023-02-04T15:27:16.562Z,99702.44
2023-02-04T15:29:43.089Z,99723.88
2023-02-04T15:32:13.454Z,99707.13
2023-02-04T15:34:42.056Z,99715.19
2023-02-04T15:37:13.652Z,99723.59
2023-02-04T15:39:44.273Z,99708.81
2023-02-04T15:42:14.457Z,99708.34
2023-02-04T15:44:44.540Z,99714.38
2023-02-04T15:47:12.743Z,99732.16
2023-02-04T15:49:39.197Z,99718.91
2023-02-04T15:52:07.127Z,99719.66
2023-02-04T15:54:38.290Z,99739.16
2023-02-04T15:57:04.722Z,99733.00
2023-02-04T15:59:31.198Z,99728.06
2023-02-04T16:01:57.708Z,99752.69
2023-02-04T16:04:24.188Z,99727.78
2023-02-04T16:06:58.480Z,99727.78
2023-02-04T16:09:26.006Z,99747.63
2023-02-04T16:11:52.498Z,99745.44
2023-02-04T16:14:18.989Z,99748.34
2023-02-04T16:16:45.518Z,99750.84
2023-02-04T16:19:14.938Z,99745.66
2023-02-04T16:21:44.182Z,99741.91
2023-02-04T16:24:16.114Z,99743.81
2023-02-04T16:26:42.857Z,99767.78
2023-02-04T16:29:09.427Z,99732.41
2023-02-04T16:31:35.934Z,99732.06
2023-02-04T16:34:05.789Z,99755.03
2023-02-04T16:36:32.353Z,99756.00
2023-02-04T16:38:59.496Z,99753.47
2023-02-04T16:41:26.171Z,99744.09
2023-02-04T16:43:52.724Z,99734.72
2023-02-04T16:46:19.301Z,99762.03
2023-02-04T16:48:45.845Z,99758.53
2023-02-04T16:51:13.044Z,99760.66
2023-02-04T16:53:39.611Z,99742.97
2023-02-04T16:56:07.014Z,99728.25
2023-02-04T16:58:33.520Z,99765.06
2023-02-04T17:01:00.019Z,99753.88
2023-02-04T17:03:28.060Z,99768.84
2023-02-04T17:05:56.117Z,99741.13
2023-02-04T17:08:22.659Z,99771.25
2023-02-04T17:11:08.350Z,99741.75
2023-02-04T17:13:34.899Z,99765.72
2023-02-04T17:16:01.949Z,99766.28
2023-02-04T17:18:29.991Z,99774.22
2023-02-04T17:20:57.560Z,99762.66
2023-02-04T17:23:24.066Z,99771.34
2023-02-04T17:25:50.599Z,99784.81
2023-02-04T17:28:17.491Z,99789.03
2023-02-04T17:30:46.879Z,99772.84
2023-02-04T17:33:17.475Z,99754.59
2023-02-04T17:35:46.743Z,99765.88
2023-02-04T17:38:16.016Z,99771.38
2023-02-04T17:40:46.430Z,99779.94
2023-02-04T17:43:13.880Z,99808.38
2023-02-04T17:45:40.339Z,99771.63
2023-02-04T17:48:06.894Z,99786.28
2023-02-04T17:53:08.967Z,99798.66
2023-02-04T17:55:37.875Z,99769.13
2023-02-04T17:58:15.672Z,99807.44
2023-02-04T18:00:45.936Z,99810.31
2023-02-04T18:03:23.847Z,99806.81
2023-02-04T18:05:52.532Z,99784.66
2023-02-04T18:08:22.241Z,99791.66
2023-02-04T18:10:51.847Z,99778.44
2023-02-04T18:13:18.352Z,99807.44
2023-02-04T18:15:57.482Z,99805.88
2023-02-04T18:18:37.738Z,99781.19
2023-02-04T18:21:43.112Z,99804.50
2023-02-04T18:24:09.840Z,99805.81
2023-02-04T18:26:49.650Z,99802.84
2023-02-04T18:29:56.683Z,99793.63
2023-02-04T18:32:48.933Z,99738.81
2023-02-04T18:35:40.464Z,99803.88
2023-02-04T18:38:21.359Z,99802.22
2023-02-04T18:41:00.228Z,99790.59
2023-02-04T18:43:29.794Z,99805.47
2023-02-04T18:46:07.547Z,99804.97
2023-02-04T18:49:25.617Z,99807.50
2023-02-04T18:51:59.362Z,99800.31
2023-02-04T18:54:51.192Z,99815.53
2023-02-04T18:57:29.208Z,99817.63
2023-02-04T19:00:11.146Z,99812.22
2023-02-04T19:02:53.881Z,99809.91
2023-02-04T19:05:32.317Z,99810.66
2023-02-04T19:08:21.230Z,99798.63
2023-02-04T19:10:52.468Z,99766.63
2023-02-04T19:13:35.918Z,99758.44
2023-02-04T19:16:23.964Z,99801.66
2023-02-04T19:18:52.660Z,99808.44
2023-02-04T19:21:27.135Z,99807.13
2023-02-04T19:24:14.249Z,99800.81
2023-02-04T19:26:57.439Z,99813.63
2023-02-04T19:29:30.250Z,99811.94
2023-02-04T19:32:25.707Z,99806.25
2023-02-04T19:34:53.187Z,99811.75
2023-02-04T19:37:24.978Z,99797.38
2023-02-04T19:39:51.673Z,99801.25
2023-02-04T19:42:34.472Z,99808.81
2023-02-04T19:45:12.731Z,99808.78
2023-02-04T19:47:44.394Z,99795.75
2023-02-04T19:50:13.933Z,99809.41
2023-02-04T19:52:47.497Z,99814.84
2023-02-04T19:55:16.738Z,99819.81
2023-02-04T19:58:22.602Z,99824.38
2023-02-04T20:01:04.842Z,99826.28
2023-02-04T20:03:40.183Z,99830.59
2023-02-04T20:06:09.727Z,99834.53
2023-02-04T20:08:46.573Z,99826.63
2023-02-04T20:11:31.095Z,99823.00
2023-02-04T20:14:07.963Z,99806.53
2023-02-04T20:16:47.027Z,99830.84
2023-02-04T20:19:27.159Z,99830.59
2023-02-04T20:22:15.245Z,99830.50
2023-02-04T20:24:42.703Z,99829.75
2023-02-04T20:27:16.918Z,99805.00
2023-02-04T20:29:43.539Z,99836.75
2023-02-04T20:32:26.292Z,99838.97
2023-02-04T20:34:58.638Z,99841.16
2023-02-04T20:37:43.666Z,99839.06
2023-02-04T20:40:37.530Z,99833.91
2023-02-04T20:43:12.259Z,99841.50
2023-02-04T20:45:53.221Z,99840.44
2023-02-04T20:48:26.325Z,99841.69
2023-02-04T20:50:54.708Z,99841.72
2023-02-04T20:53:28.099Z,99837.59
2023-02-04T20:56:05.128Z,99833.16
2023-02-04T20:58:37.571Z,99840.44
2023-02-04T21:01:29.048Z,99840.88
2023-02-04T21:03:57.709Z,99853.53
2023-02-04T21:06:30.063Z,99827.16
2023-02-04T21:08:59.052Z,99856.06
2023-02-04T21:11:26.561Z,99848.91
2023-02-04T21:13:54.433Z,99856.81
2023-02-04T21:16:23.916Z,99869.16
2023-02-04T21:18:51.114Z,99853.56
2023-02-04T21:21:17.856Z,99868.00
2023-02-04T21:23:44.312Z,99858.00
2023-02-04T21:26:10.782Z,99860.63
2023-02-04T21:28:37.298Z,99874.44
2023-02-04T21:31:04.234Z,99829.91
2023-02-04T21:33:30.813Z,99867.25
2023-02-04T21:35:57.409Z,99858.09
2023-02-04T21:38:23.918Z,99877.41
2023-02-04T21:40:55.470Z,99880.25
2023-02-04T21:43:22.592Z,99868.75
2023-02-04T21:45:49.024Z,99877.41
2023-02-04T21:48:15.452Z,99874.00
2023-02-04T21:50:44.145Z,99890.72
2023-02-04T21:53:10.939Z,99861.78
2023-02-04T21:55:37.811Z,99888.59
2023-02-04T21:58:05.415Z,99897.56
2023-02-04T22:00:32.164Z,99890.50
2023-02-04T22:02:58.736Z,99879.75
2023-02-04T22:05:25.533Z,99894.28
2023-02-04T22:07:55.348Z,99894.81
2023-02-04T22:10:24.960Z,99892.09
2023-02-04T22:12:54.146Z,99901.50
2023-02-04T22:15:24.638Z,99902.97
2023-02-04T22:17:56.290Z,99885.22
2023-02-04T22:20:25.579Z,99900.94
2023-02-04T22:22:59.678Z,99912.69
2023-02-04T22:25:28.241Z,99869.28
2023-02-04T22:27:57.544Z,99894.69
2023-02-04T22:30:27.159Z,99893.25
2023-02-04T22:32:56.611Z,99894.50
2023-02-04T22:35:25.577Z,99892.19
2023-02-04T22:37:52.065Z,99885.13
2023-02-04T22:40:18.787Z,99891.66
2023-02-04T22:42:45.449Z,99899.66
2023-02-04T22:45:12.960Z,99872.44
2023-02-04T22:47:39.471Z,99906.47
2023-02-04T22:50:06.281Z,99896.63
2023-02-04T22:52:32.968Z,99902.44
2023-02-04T22:54:59.544Z,99908.34
2023-02-04T22:57:28.890Z,99884.50
2023-02-04T22:59:56.886Z,99897.38
2023-02-04T23:02:23.329Z,99908.44
2023-02-04T23:04:49.794Z,99912.25
2023-02-04T23:07:16.313Z,99905.28
2023-02-04T23:09:42.843Z,99917.97
2023-02-04T23:12:15.453Z,99922.69
2023-02-04T23:14:44.223Z,99919.94
2023-02-04T23:17:11.496Z,99919.84
2023-02-04T23:19:38.321Z,99905.50
2023-02-04T23:22:06.150Z,99913.63
2023-02-04T23:24:33.275Z,99911.50
2023-02-04T23:27:00.240Z,99918.56
2023-02-04T23:29:32.260Z,99919.97
2023-02-04T23:31:59.024Z,99903.28
2023-02-04T23:34:28.304Z,99925.34
2023-02-04T23:36:54.792Z,99902.22
2023-02-04T23:39:21.904Z,99924.41
2023-02-04T23:41:49.119Z,99920.28
2023-02-04T23:44:15.602Z,99907.19
2023-02-04T23:46:42.156Z,99911.75
2023-02-04T23:49:09.235Z,99917.22
2023-02-04T23:51:36.078Z,99901.81
2023-02-04T23:54:02.738Z,99893.47
2023-02-04T23:56:30.298Z,99888.72
2023-02-04T23:58:59.285Z,99894.53
